Terminal Aerodrome Forecast
Issued by NWS

Current Version | Previous Version | Graphics & Text | Print | Product List | Glossary On
Versions: 1 2 3 4 5 6 7 8 9 10 11 12 13 14 15 16 17 18 19 20 21 22
438
FTUS41 KILN 251138
TAFLUK
TAF
KLUK 251138Z 2512/2612 22007KT P6SM FEW040
     FM251600 23010KT P6SM SCT045
     FM260000 27006KT P6SM SCT250
     FM260600 00000KT 4SM BR SCT250
      TEMPO 2608/2612 1SM BR=

USA.gov is the U.S. government's official web portal to all federal, state and local government web resources and services.